Terminal Aerodrome Forecast
Issued by NWS Charleston, WV

Home | Current Version | Previous Version | Text Only | Print | Product List | Glossary On
Versions: 1 2 3 4 5 6 7 8 9 10 11 12 13 14 15 16 17 18 19 20 21 22 23 24 25 26 27
000
FTUS41 KRLX 031922 AAA
TAFCRW
TAF AMD
KCRW 031922Z 0319/0418 14007KT P6SM BKN035
     FM032000 VRB03KT P6SM VCTS BKN035CB
     FM040000 00000KT P6SM BKN050
     FM040800 00000KT 6SM BR BKN110
     FM041200 00000KT 3/4SM BR BKN001
     FM041400 00000KT P6SM BKN060
     FM041700 00000KT P6SM VCTS BKN050CB=

USA.gov is the U.S. government's official web portal to all federal, state and local government web resources and services.